Terminal Aerodrome Forecast
Issued by NWS

Home | Current Version | Previous Version | Text Only | Print | Product List | Glossary On
Versions: 1 2 3 4 5 6 7 8 9 10 11 12 13 14
000
FTUS43 KGLD 200900 AAA
TAFMCK
TAF AMD
KMCK 200950Z 2010/2106 VRB05KT 5SM BR BKN120
     FM201600 11007KT P6SM SCT050 BKN120 PROB30 2019/2101 -TSRA
      BKN040CB
     FM210300 20005KT P6SM BKN150=

USA.gov is the U.S. government's official web portal to all federal, state and local government web resources and services.